Terminal Aerodrome Forecast
Issued by NWS Sioux Falls, SD

Home | Current Version | Previous Version | Graphics & Text | Print | Product List | Glossary Off
Versions: 1 2 3 4 5 6 7 8 9 10 11 12 13 14 15 16 17 18 19 20 21 22 23 24 25 26 27 28 29

608
FTUS43 KFSD 221127
TAFSUX
TAF
KSUX 221127Z 2212/2312 16012KT P6SM SCT120
     FM221400 17015G23KT P6SM SCT120
     FM230300 16013G19KT P6SM SCT120 WS014/18045KT
     FM230700 17010KT P6SM SCT250=

USA.gov is the U.S. government's official web portal to all federal, state and local government web resources and services.